createdAt,value
2019-01-06T00:00:20.092Z,1023.26
2019-01-06T00:01:20.079Z,1023.31
2019-01-06T00:02:20.125Z,1023.28
2019-01-06T00:03:20.089Z,1023.29
2019-01-06T00:04:20.049Z,1023.28
2019-01-06T00:05:20.043Z,1023.31
2019-01-06T00:06:20.020Z,1023.30
2019-01-06T00:07:20.032Z,1023.33
2019-01-06T00:08:20.006Z,1023.38
2019-01-06T00:09:19.988Z,1023.31
2019-01-06T00:10:19.977Z,1023.30
2019-01-06T00:11:19.965Z,1023.30
2019-01-06T00:12:19.979Z,1023.36
2019-01-06T00:13:19.951Z,1023.31
2019-01-06T00:14:19.943Z,1023.33
2019-01-06T00:15:19.922Z,1023.30
2019-01-06T00:16:19.912Z,1023.34
2019-01-06T00:17:19.944Z,1023.35
2019-01-06T00:18:19.890Z,1023.33
2019-01-06T00:19:19.878Z,1023.32
2019-01-06T00:20:19.880Z,1023.32
2019-01-06T00:21:19.858Z,1023.34
2019-01-06T00:22:19.844Z,1023.33
2019-01-06T00:23:19.857Z,1023.38
2019-01-06T00:24:19.826Z,1023.39
2019-01-06T00:25:19.813Z,1023.37
2019-01-06T00:26:19.804Z,1023.36
2019-01-06T00:27:19.790Z,1023.35
2019-01-06T00:28:19.799Z,1023.36
2019-01-06T00:29:19.770Z,1023.32
2019-01-06T00:30:19.787Z,1023.33
2019-01-06T00:31:19.755Z,1023.33
2019-01-06T00:32:19.735Z,1023.31
2019-01-06T00:33:19.750Z,1023.22
2019-01-06T00:34:19.712Z,1023.21
2019-01-06T00:35:19.702Z,1023.18
2019-01-06T00:36:19.691Z,1023.21
2019-01-06T00:37:19.681Z,1023.23
2019-01-06T00:38:19.690Z,1023.32
2019-01-06T00:39:19.664Z,1023.23
2019-01-06T00:40:19.646Z,1023.25
2019-01-06T00:41:19.637Z,1023.23
2019-01-06T00:42:19.633Z,1023.30
2019-01-06T00:43:19.659Z,1023.30
2019-01-06T00:44:19.605Z,1023.32
2019-01-06T00:45:19.601Z,1023.34
2019-01-06T00:46:19.584Z,1023.35
2019-01-06T00:47:19.584Z,1023.33
2019-01-06T00:48:19.561Z,1023.37
2019-01-06T00:49:19.576Z,1023.39
2019-01-06T00:50:19.540Z,1023.40
2019-01-06T00:51:19.529Z,1023.37
2019-01-06T00:52:19.515Z,1023.42
2019-01-06T00:53:19.505Z,1023.41
2019-01-06T00:54:19.517Z,1023.37
2019-01-06T00:55:19.483Z,1023.41
2019-01-06T00:56:19.474Z,1023.35
2019-01-06T00:57:19.463Z,1023.33
2019-01-06T00:58:19.449Z,1023.34
2019-01-06T00:59:19.459Z,1023.33
2019-01-06T01:00:19.426Z,1023.34
2019-01-06T01:01:19.420Z,1023.27
2019-01-06T01:02:19.405Z,1023.30
2019-01-06T01:03:19.393Z,1023.29
2019-01-06T01:04:19.405Z,1023.34
2019-01-06T01:05:19.374Z,1023.37
2019-01-06T01:06:19.361Z,1023.43
2019-01-06T01:07:19.354Z,1023.43
2019-01-06T01:08:19.342Z,1023.44
2019-01-06T01:09:19.357Z,1023.40
2019-01-06T01:10:19.317Z,1023.43
2019-01-06T01:11:19.308Z,1023.43
2019-01-06T01:12:19.297Z,1023.45
2019-01-06T01:13:19.286Z,1023.49
2019-01-06T01:14:19.293Z,1023.46
2019-01-06T01:15:19.260Z,1023.55
2019-01-06T01:16:19.266Z,1023.52
2019-01-06T01:17:19.242Z,1023.53
2019-01-06T01:18:19.229Z,1023.53
2019-01-06T01:19:19.249Z,1023.49
2019-01-06T01:20:19.208Z,1023.54
2019-01-06T01:21:19.197Z,1023.50
2019-01-06T01:22:19.184Z,1023.44
2019-01-06T01:23:19.172Z,1023.48
2019-01-06T01:24:19.198Z,1023.48
2019-01-06T01:25:19.150Z,1023.44
2019-01-06T01:26:19.140Z,1023.46
2019-01-06T01:27:19.129Z,1023.45
2019-01-06T01:28:19.116Z,1023.48
2019-01-06T01:29:19.110Z,1023.44
2019-01-06T01:30:27.453Z,1023.44
2019-01-06T01:31:19.083Z,1023.45
2019-01-06T01:32:19.071Z,1023.47
2019-01-06T01:33:19.062Z,1023.44
2019-01-06T01:34:19.049Z,1023.44
2019-01-06T01:35:19.066Z,1023.42
2019-01-06T01:36:19.028Z,1023.48
2019-01-06T01:37:19.023Z,1023.41
2019-01-06T01:38:19.006Z,1023.43
2019-01-06T01:39:18.995Z,1023.48
2019-01-06T01:40:19.005Z,1023.53
2019-01-06T01:41:18.980Z,1023.52
2019-01-06T01:42:18.962Z,1023.52
2019-01-06T01:43:18.953Z,1023.55
2019-01-06T01:44:18.945Z,1023.55
2019-01-06T01:45:18.951Z,1023.53
2019-01-06T01:46:18.922Z,1023.59
2019-01-06T01:47:18.906Z,1023.58
2019-01-06T01:48:18.894Z,1023.63
2019-01-06T01:49:18.884Z,1023.58
2019-01-06T01:50:18.895Z,1023.55
2019-01-06T01:51:18.865Z,1023.59
2019-01-06T01:52:18.852Z,1023.58
2019-01-06T01:53:18.840Z,1023.58
2019-01-06T01:54:18.829Z,1023.58
2019-01-06T01:55:18.848Z,1023.55
2019-01-06T01:56:18.808Z,1023.53
2019-01-06T01:57:18.796Z,1023.62
2019-01-06T01:58:18.785Z,1023.56
2019-01-06T01:59:18.773Z,1023.56
2019-01-06T02:00:18.763Z,1023.59
2019-01-06T02:01:18.773Z,1023.57
2019-01-06T02:02:18.744Z,1023.53
2019-01-06T02:03:18.729Z,1023.52
2019-01-06T02:04:18.722Z,1023.50
2019-01-06T02:05:18.708Z,1023.53
2019-01-06T02:06:18.719Z,1023.63
2019-01-06T02:07:18.689Z,1023.61
2019-01-06T02:08:18.680Z,1023.59
2019-01-06T02:09:18.666Z,1023.62
2019-01-06T02:10:18.654Z,1023.61
2019-01-06T02:11:18.666Z,1023.63
2019-01-06T02:12:18.637Z,1023.61
2019-01-06T02:13:18.619Z,1023.62
2019-01-06T02:14:18.616Z,1023.60
2019-01-06T02:15:18.598Z,1023.60
2019-01-06T02:16:18.609Z,1023.55
2019-01-06T02:17:18.576Z,1023.57
2019-01-06T02:18:18.566Z,1023.54
2019-01-06T02:19:18.555Z,1023.58
2019-01-06T02:20:18.547Z,1023.58
2019-01-06T02:21:18.553Z,1023.56
2019-01-06T02:22:18.529Z,1023.54
2019-01-06T02:23:18.510Z,1023.55
2019-01-06T02:24:18.499Z,1023.52
2019-01-06T02:25:18.489Z,1023.56
2019-01-06T02:26:18.497Z,1023.54
2019-01-06T02:27:18.465Z,1023.53
2019-01-06T02:28:18.456Z,1023.55
2019-01-06T02:29:18.445Z,1023.55
2019-01-06T02:30:18.432Z,1023.60
2019-01-06T02:31:18.447Z,1023.59
2019-01-06T02:32:18.410Z,1023.58
2019-01-06T02:33:18.402Z,1023.59
2019-01-06T02:34:18.388Z,1023.56
2019-01-06T02:35:18.378Z,1023.59
2019-01-06T02:36:18.366Z,1023.68
2019-01-06T02:37:18.379Z,1023.60
2019-01-06T02:38:18.342Z,1023.59
2019-01-06T02:39:18.335Z,1023.70
2019-01-06T02:40:18.323Z,1023.63
2019-01-06T02:41:18.311Z,1023.61
2019-01-06T02:42:18.326Z,1023.63
2019-01-06T02:43:18.291Z,1023.60
2019-01-06T02:44:18.280Z,1023.67
2019-01-06T02:45:18.271Z,1023.60
2019-01-06T02:46:18.256Z,1023.62
2019-01-06T02:47:18.268Z,1023.58
2019-01-06T02:48:18.233Z,1023.64
2019-01-06T02:49:18.222Z,1023.62
2019-01-06T02:50:18.216Z,1023.62
2019-01-06T02:51:18.201Z,1023.56
2019-01-06T02:52:18.215Z,1023.58
2019-01-06T02:53:18.178Z,1023.65
2019-01-06T02:54:18.168Z,1023.63
2019-01-06T02:55:18.157Z,1023.64
2019-01-06T02:56:18.146Z,1023.63
2019-01-06T02:57:18.160Z,1023.64
2019-01-06T02:58:18.124Z,1023.63
2019-01-06T02:59:18.111Z,1023.65
2019-01-06T03:00:18.101Z,1023.63
2019-01-06T03:01:18.090Z,1023.69
2019-01-06T03:02:18.120Z,1023.68
2019-01-06T03:03:18.068Z,1023.64
2019-01-06T03:04:18.057Z,1023.65
2019-01-06T03:05:18.047Z,1023.66
2019-01-06T03:06:18.037Z,1023.66
2019-01-06T03:07:18.027Z,1023.64
2019-01-06T03:08:18.036Z,1023.64
2019-01-06T03:09:18.002Z,1023.59
2019-01-06T03:10:17.993Z,1023.62
2019-01-06T03:11:17.980Z,1023.62
2019-01-06T03:12:17.971Z,1023.68
2019-01-06T03:13:17.983Z,1023.71
2019-01-06T03:14:17.950Z,1023.68
2019-01-06T03:15:17.935Z,1023.61
2019-01-06T03:16:17.926Z,1023.59
2019-01-06T03:17:17.913Z,1023.63
2019-01-06T03:18:17.927Z,1023.63
2019-01-06T03:19:17.892Z,1023.57
2019-01-06T03:20:17.881Z,1023.61
2019-01-06T03:21:17.868Z,1023.56
2019-01-06T03:22:17.861Z,1023.64
2019-01-06T03:23:17.870Z,1023.61
2019-01-06T03:24:17.843Z,1023.62
2019-01-06T03:25:17.827Z,1023.62
2019-01-06T03:26:17.816Z,1023.58
2019-01-06T03:27:17.802Z,1023.59
2019-01-06T03:28:17.845Z,1023.55
2019-01-06T03:29:17.780Z,1023.54
2019-01-06T03:30:17.776Z,1023.54
2019-01-06T03:31:17.769Z,1023.51
2019-01-06T03:32:17.753Z,1023.51
2019-01-06T03:33:17.737Z,1023.55
2019-01-06T03:34:17.747Z,1023.56
2019-01-06T03:35:17.750Z,1023.55
2019-01-06T03:36:17.704Z,1023.50
2019-01-06T03:37:17.692Z,1023.48
2019-01-06T03:38:17.682Z,1023.49
2019-01-06T03:39:17.696Z,1023.51
2019-01-06T03:40:17.659Z,1023.47
2019-01-06T03:41:17.649Z,1023.43
2019-01-06T03:42:17.668Z,1023.42
2019-01-06T03:43:17.630Z,1023.45
2019-01-06T03:44:17.638Z,1023.47
2019-01-06T03:45:17.615Z,1023.44
2019-01-06T03:46:17.595Z,1023.42
2019-01-06T03:47:17.582Z,1023.40
2019-01-06T03:48:17.576Z,1023.45
2019-01-06T03:49:17.623Z,1023.46
2019-01-06T03:50:17.548Z,1023.45
2019-01-06T03:51:17.538Z,1023.37
2019-01-06T03:52:17.528Z,1023.46
2019-01-06T03:53:17.516Z,1023.39
2019-01-06T03:54:17.508Z,1023.38
2019-01-06T03:55:17.516Z,1023.37
2019-01-06T03:56:17.483Z,1023.32
2019-01-06T03:57:17.472Z,1023.32
2019-01-06T03:58:17.464Z,1023.30
2019-01-06T03:59:17.450Z,1023.32
2019-01-06T04:00:17.460Z,1023.27
2019-01-06T04:01:17.428Z,1023.29
2019-01-06T04:02:17.417Z,1023.27
2019-01-06T04:03:17.486Z,1023.27
2019-01-06T04:04:17.395Z,1023.21
2019-01-06T04:05:17.407Z,1023.22
2019-01-06T04:06:17.372Z,1023.19
2019-01-06T04:07:17.363Z,1023.18
2019-01-06T04:08:17.351Z,1023.21
2019-01-06T04:09:17.343Z,1023.22
2019-01-06T04:10:17.633Z,1023.25
2019-01-06T04:11:17.319Z,1023.21
2019-01-06T04:12:17.310Z,1023.23
2019-01-06T04:13:17.300Z,1023.23
2019-01-06T04:14:17.285Z,1023.22
2019-01-06T04:15:17.284Z,1023.21
2019-01-06T04:16:17.295Z,1023.20
2019-01-06T04:17:17.258Z,1023.21
2019-01-06T04:18:17.244Z,1023.24
2019-01-06T04:19:17.230Z,1023.19
2019-01-06T04:20:17.222Z,1023.18
2019-01-06T04:21:17.241Z,1023.15
2019-01-06T04:22:17.198Z,1023.21
2019-01-06T04:23:17.188Z,1023.17
2019-01-06T04:24:17.174Z,1023.20
2019-01-06T04:25:17.164Z,1023.24
2019-01-06T04:26:17.229Z,1023.14
2019-01-06T04:27:17.141Z,1023.18
2019-01-06T04:28:17.136Z,1023.18
2019-01-06T04:29:17.120Z,1023.16
2019-01-06T04:30:17.109Z,1023.16
2019-01-06T04:31:17.122Z,1023.16
2019-01-06T04:32:17.095Z,1023.19
2019-01-06T04:33:17.079Z,1023.18
2019-01-06T04:34:17.063Z,1023.20
2019-01-06T04:35:17.055Z,1023.08
2019-01-06T04:36:17.063Z,1023.09
2019-01-06T04:37:17.032Z,1023.10
2019-01-06T04:38:17.020Z,1023.09
2019-01-06T04:39:17.009Z,1023.08
2019-01-06T04:40:16.999Z,1023.04
2019-01-06T04:41:17.025Z,1023.06
2019-01-06T04:42:16.980Z,1023.08
2019-01-06T04:43:16.968Z,1023.09
2019-01-06T04:44:16.954Z,1023.09
2019-01-06T04:45:16.942Z,1023.10
2019-01-06T04:46:16.931Z,1023.09
2019-01-06T04:47:16.947Z,1023.09
2019-01-06T04:48:16.911Z,1023.07
2019-01-06T04:49:16.899Z,1023.00
2019-01-06T04:50:16.887Z,1023.08
2019-01-06T04:51:16.878Z,1023.06
2019-01-06T04:52:16.888Z,1023.10
2019-01-06T04:53:16.854Z,1023.05
2019-01-06T04:54:16.846Z,1023.05
2019-01-06T04:55:16.833Z,1023.02
2019-01-06T04:56:16.825Z,1023.08
2019-01-06T04:57:16.834Z,1022.99
2019-01-06T04:58:16.800Z,1023.05
2019-01-06T04:59:16.789Z,1023.03
2019-01-06T05:00:16.779Z,1023.04
2019-01-06T05:01:16.766Z,1023.07
2019-01-06T05:02:16.792Z,1023.07
2019-01-06T05:03:16.745Z,1023.09
2019-01-06T05:04:16.741Z,1023.07
2019-01-06T05:05:16.795Z,1023.04
2019-01-06T05:06:16.714Z,1023.07
2019-01-06T05:07:16.699Z,1023.06
2019-01-06T05:08:16.721Z,1023.06
2019-01-06T05:09:16.677Z,1023.03
2019-01-06T05:10:16.668Z,1023.06
2019-01-06T05:11:16.657Z,1023.06
2019-01-06T05:12:16.648Z,1023.08
2019-01-06T05:13:16.656Z,1023.08
2019-01-06T05:14:16.623Z,1023.08
2019-01-06T05:15:16.612Z,1023.06
2019-01-06T05:16:16.608Z,1023.06
2019-01-06T05:17:16.594Z,1023.06
2019-01-06T05:18:16.601Z,1023.09
2019-01-06T05:19:16.567Z,1023.05
2019-01-06T05:20:16.559Z,1023.11
2019-01-06T05:21:16.548Z,1023.09
2019-01-06T05:22:16.535Z,1023.11
2019-01-06T05:23:16.547Z,1023.16
2019-01-06T05:24:16.511Z,1023.12
2019-01-06T05:25:16.501Z,1023.17
2019-01-06T05:26:16.491Z,1023.14
2019-01-06T05:27:16.480Z,1023.17
2019-01-06T05:28:16.491Z,1023.12
2019-01-06T05:29:16.459Z,1023.16
2019-01-06T05:30:16.447Z,1023.13
2019-01-06T05:31:16.437Z,1023.18
2019-01-06T05:32:16.423Z,1023.14
2019-01-06T05:33:16.450Z,1023.11
2019-01-06T05:34:16.402Z,1023.18
2019-01-06T05:35:16.399Z,1023.15
2019-01-06T05:36:16.382Z,1023.13
2019-01-06T05:37:16.375Z,1023.16
2019-01-06T05:38:16.357Z,1023.17
2019-01-06T05:39:16.369Z,1023.16
2019-01-06T05:40:16.336Z,1023.22
2019-01-06T05:41:16.325Z,1023.20
2019-01-06T05:42:16.315Z,1023.21
2019-01-06T05:43:16.307Z,1023.18
2019-01-06T05:44:16.318Z,1023.23
2019-01-06T05:45:16.285Z,1023.22
2019-01-06T05:46:16.270Z,1023.22
2019-01-06T05:47:16.259Z,1023.21
2019-01-06T05:48:16.247Z,1023.27
2019-01-06T05:49:16.260Z,1023.21
2019-01-06T05:50:16.225Z,1023.24
2019-01-06T05:51:16.214Z,1023.22
2019-01-06T05:52:16.204Z,1023.21
2019-01-06T05:53:16.195Z,1023.26
2019-01-06T05:54:16.204Z,1023.29
2019-01-06T05:55:16.170Z,1023.28
2019-01-06T05:56:16.162Z,1023.32
2019-01-06T05:57:16.151Z,1023.32
2019-01-06T05:58:16.137Z,1023.34
2019-01-06T05:59:16.148Z,1023.35
2019-01-06T06:00:16.116Z,1023.35
2019-01-06T06:01:16.107Z,1023.39
2019-01-06T06:02:16.094Z,1023.33
2019-01-06T06:03:16.083Z,1023.37
2019-01-06T06:04:16.094Z,1023.44
2019-01-06T06:05:16.061Z,1023.40
2019-01-06T06:06:16.052Z,1023.35
2019-01-06T06:07:16.047Z,1023.43
2019-01-06T06:08:16.027Z,1023.40
2019-01-06T06:09:16.054Z,1023.39
2019-01-06T06:10:16.004Z,1023.43
2019-01-06T06:11:16.003Z,1023.42
2019-01-06T06:12:15.983Z,1023.42
2019-01-06T06:13:15.973Z,1023.40
2019-01-06T06:14:15.970Z,1023.42
2019-01-06T06:15:15.982Z,1023.40
2019-01-06T06:16:15.939Z,1023.41
2019-01-06T06:17:15.927Z,1023.48
2019-01-06T06:18:15.917Z,1023.48
2019-01-06T06:19:15.906Z,1023.47
2019-01-06T06:20:15.922Z,1023.51
2019-01-06T06:21:15.884Z,1023.52
2019-01-06T06:22:15.874Z,1023.47
2019-01-06T06:23:15.863Z,1023.46
2019-01-06T06:24:15.854Z,1023.49
2019-01-06T06:25:15.866Z,1023.47
2019-01-06T06:26:15.829Z,1023.49
2019-01-06T06:27:15.823Z,1023.48
2019-01-06T06:28:15.818Z,1023.49
2019-01-06T06:29:15.798Z,1023.45
2019-01-06T06:30:15.808Z,1023.49
2019-01-06T06:31:15.777Z,1023.50
2019-01-06T06:32:15.762Z,1023.51
2019-01-06T06:33:15.756Z,1023.51
2019-01-06T06:34:15.742Z,1023.52
2019-01-06T06:35:15.774Z,1023.50
2019-01-06T06:36:15.722Z,1023.52
2019-01-06T06:37:15.714Z,1023.55
2019-01-06T06:38:15.698Z,1023.52
2019-01-06T06:39:15.687Z,1023.58
2019-01-06T06:40:15.679Z,1023.56
2019-01-06T06:41:15.685Z,1023.53
2019-01-06T06:42:15.656Z,1023.56
2019-01-06T06:43:15.649Z,1023.52
2019-01-06T06:44:15.632Z,1023.59
2019-01-06T06:45:15.623Z,1023.55
2019-01-06T06:46:15.633Z,1023.58
2019-01-06T06:47:15.600Z,1023.60
2019-01-06T06:48:15.590Z,1023.63
2019-01-06T06:49:15.580Z,1023.64
2019-01-06T06:50:15.567Z,1023.69
2019-01-06T06:51:15.578Z,1023.66
2019-01-06T06:52:15.543Z,1023.71
2019-01-06T06:53:15.534Z,1023.69
2019-01-06T06:54:15.522Z,1023.74
2019-01-06T06:55:15.514Z,1023.71
2019-01-06T06:56:15.537Z,1023.72
2019-01-06T06:57:15.490Z,1023.67
2019-01-06T06:58:15.483Z,1023.73
2019-01-06T06:59:15.468Z,1023.73
2019-01-06T07:00:15.457Z,1023.74
2019-01-06T07:01:15.453Z,1023.80
2019-01-06T07:02:15.460Z,1023.74
2019-01-06T07:03:15.424Z,1023.73
2019-01-06T07:04:15.413Z,1023.79
2019-01-06T07:05:15.404Z,1023.78
2019-01-06T07:06:15.394Z,1023.76
2019-01-06T07:07:15.402Z,1023.79
2019-01-06T07:08:15.368Z,1023.79
2019-01-06T07:09:15.357Z,1023.82
2019-01-06T07:10:15.347Z,1023.80
2019-01-06T07:11:15.334Z,1023.80
2019-01-06T07:12:15.348Z,1023.82
2019-01-06T07:13:15.313Z,1023.85
2019-01-06T07:14:15.304Z,1023.82
2019-01-06T07:15:15.290Z,1023.92
2019-01-06T07:16:15.285Z,1023.87
2019-01-06T07:17:15.321Z,1023.87
2019-01-06T07:18:15.257Z,1023.92
2019-01-06T07:19:15.246Z,1023.95
2019-01-06T07:20:15.247Z,1023.95
2019-01-06T07:21:15.224Z,1023.97
2019-01-06T07:22:15.225Z,1023.93
2019-01-06T07:23:15.240Z,1023.96
2019-01-06T07:24:15.193Z,1023.98
2019-01-06T07:25:15.193Z,1023.95
2019-01-06T07:26:15.174Z,1023.89
2019-01-06T07:27:15.159Z,1023.99
2019-01-06T07:28:15.171Z,1023.96
2019-01-06T07:29:15.141Z,1024.04
2019-01-06T07:30:15.126Z,1024.07
2019-01-06T07:31:15.114Z,1023.99
2019-01-06T07:32:15.103Z,1024.00
2019-01-06T07:33:15.113Z,1024.06
2019-01-06T07:34:15.081Z,1024.11
2019-01-06T07:35:15.081Z,1024.07
2019-01-06T07:36:15.058Z,1024.12
2019-01-06T07:37:15.047Z,1024.11
2019-01-06T07:38:15.100Z,1024.12
2019-01-06T07:39:15.026Z,1024.15
2019-01-06T07:40:15.018Z,1024.13
2019-01-06T07:41:15.006Z,1024.19
2019-01-06T07:42:15.001Z,1024.18
2019-01-06T07:43:15.004Z,1024.17
2019-01-06T07:44:14.973Z,1024.16
2019-01-06T07:45:14.960Z,1024.21
2019-01-06T07:46:14.949Z,1024.20
2019-01-06T07:47:14.959Z,1024.23
2019-01-06T07:48:14.961Z,1024.23
2019-01-06T07:49:14.917Z,1024.23
2019-01-06T07:50:14.909Z,1024.26
2019-01-06T07:51:14.893Z,1024.30
2019-01-06T07:52:14.882Z,1024.30
2019-01-06T07:53:14.872Z,1024.36
2019-01-06T07:54:14.891Z,1024.24
2019-01-06T07:55:14.849Z,1024.31
2019-01-06T07:56:14.837Z,1024.32
2019-01-06T07:57:14.827Z,1024.34
2019-01-06T07:58:14.816Z,1024.34
2019-01-06T07:59:14.828Z,1024.36
2019-01-06T08:00:15.388Z,1024.40
2019-01-06T08:01:14.783Z,1024.40
2019-01-06T08:02:14.771Z,1024.45
2019-01-06T08:03:14.772Z,1024.39
2019-01-06T08:04:14.772Z,1024.41
2019-01-06T08:05:14.740Z,1024.38
2019-01-06T08:06:14.730Z,1024.41
2019-01-06T08:07:14.723Z,1024.48
2019-01-06T08:08:14.705Z,1024.49
2019-01-06T08:09:14.719Z,1024.48
2019-01-06T08:10:14.684Z,1024.49
2019-01-06T08:11:14.672Z,1024.49
2019-01-06T08:12:14.813Z,1024.46
2019-01-06T08:13:14.652Z,1024.56
2019-01-06T08:14:14.662Z,1024.55
2019-01-06T08:15:14.628Z,1024.54
2019-01-06T08:16:14.619Z,1024.55
2019-01-06T08:17:14.619Z,1024.59
2019-01-06T08:18:14.601Z,1024.58
2019-01-06T08:19:14.607Z,1024.59
2019-01-06T08:20:14.576Z,1024.62
2019-01-06T08:21:14.564Z,1024.61
2019-01-06T08:22:14.551Z,1024.64
2019-01-06T08:23:14.542Z,1024.59
2019-01-06T08:24:14.565Z,1024.64
2019-01-06T08:25:14.522Z,1024.67
2019-01-06T08:26:14.507Z,1024.66
2019-01-06T08:27:14.497Z,1024.63
2019-01-06T08:28:14.505Z,1024.65
2019-01-06T08:29:14.478Z,1024.71
2019-01-06T08:30:14.487Z,1024.72
2019-01-06T08:31:14.453Z,1024.64
2019-01-06T08:32:14.449Z,1024.72
2019-01-06T08:33:14.431Z,1024.72
2019-01-06T08:34:14.420Z,1024.72
2019-01-06T08:35:14.436Z,1024.73
2019-01-06T08:36:14.398Z,1024.75
2019-01-06T08:37:14.390Z,1024.71
2019-01-06T08:38:14.376Z,1024.80
2019-01-06T08:39:14.368Z,1024.71
2019-01-06T08:40:14.429Z,1024.77
2019-01-06T08:41:14.345Z,1024.81
2019-01-06T08:42:14.336Z,1024.77
2019-01-06T08:43:14.322Z,1024.81
2019-01-06T08:44:14.323Z,1024.79
2019-01-06T08:45:14.323Z,1024.82
2019-01-06T08:46:14.292Z,1024.77
2019-01-06T08:47:14.278Z,1024.83
2019-01-06T08:48:14.266Z,1024.81
2019-01-06T08:49:14.258Z,1024.77
2019-01-06T08:50:14.268Z,1024.80
2019-01-06T08:51:14.243Z,1024.80
2019-01-06T08:52:14.429Z,1024.85
2019-01-06T08:53:14.214Z,1024.85
2019-01-06T08:54:14.228Z,1024.79
2019-01-06T08:55:14.215Z,1024.89
2019-01-06T08:56:14.180Z,1024.88
2019-01-06T08:57:14.171Z,1024.89
2019-01-06T08:58:14.158Z,1024.82
2019-01-06T08:59:14.145Z,1024.88
2019-01-06T09:00:14.170Z,1024.90
2019-01-06T09:01:14.123Z,1024.94
2019-01-06T09:02:14.115Z,1024.92
2019-01-06T09:03:14.114Z,1024.94
2019-01-06T09:04:14.122Z,1024.91
2019-01-06T09:05:14.101Z,1024.98
2019-01-06T09:06:14.092Z,1025.01
2019-01-06T09:07:14.064Z,1024.97
2019-01-06T09:08:14.049Z,1025.02
2019-01-06T09:09:14.037Z,1025.00
2019-01-06T09:10:14.026Z,1025.00
2019-01-06T09:11:23.930Z,1025.02
2019-01-06T09:12:14.120Z,1024.99
2019-01-06T09:13:13.999Z,1025.04
2019-01-06T09:14:13.988Z,1025.04
2019-01-06T09:15:15.125Z,1025.04
2019-01-06T09:16:13.989Z,1025.08
2019-01-06T09:17:13.947Z,1025.05
2019-01-06T09:18:14.611Z,1025.11
2019-01-06T09:19:13.928Z,1025.06
2019-01-06T09:20:22.238Z,1025.08
2019-01-06T09:21:14.075Z,1025.10
2019-01-06T09:22:13.891Z,1025.13
2019-01-06T09:23:13.935Z,1025.16
2019-01-06T09:24:18.091Z,1025.11
2019-01-06T09:25:13.861Z,1025.15
2019-01-06T09:26:13.869Z,1025.10
2019-01-06T09:27:13.836Z,1025.13
2019-01-06T09:28:13.823Z,1025.12
2019-01-06T09:29:13.812Z,1025.17
2019-01-06T09:30:13.805Z,1025.09
2019-01-06T09:31:13.815Z,1025.16
2019-01-06T09:32:13.783Z,1025.14
2019-01-06T09:33:13.770Z,1025.16
2019-01-06T09:34:13.758Z,1025.12
2019-01-06T09:35:13.749Z,1025.25
2019-01-06T09:36:13.926Z,1025.23
2019-01-06T09:37:13.726Z,1025.16
2019-01-06T09:38:13.713Z,1025.18
2019-01-06T09:39:13.704Z,1025.17
2019-01-06T09:40:13.691Z,1025.19
2019-01-06T09:41:13.680Z,1025.19
2019-01-06T09:42:13.691Z,1025.19
2019-01-06T09:43:13.689Z,1025.11
2019-01-06T09:44:13.648Z,1025.17
2019-01-06T09:45:13.636Z,1025.17
2019-01-06T09:46:13.625Z,1025.19
2019-01-06T09:47:13.635Z,1025.15
2019-01-06T09:48:13.606Z,1025.21
2019-01-06T09:49:13.591Z,1025.20
2019-01-06T09:50:13.580Z,1025.19
2019-01-06T09:51:13.573Z,1025.14
2019-01-06T09:52:13.624Z,1025.17
2019-01-06T09:53:23.452Z,1025.15
2019-01-06T09:54:13.545Z,1025.19
2019-01-06T09:55:13.541Z,1025.18
2019-01-06T09:56:13.516Z,1025.13
2019-01-06T09:57:13.526Z,1025.13
2019-01-06T09:58:13.495Z,1025.14
2019-01-06T09:59:15.392Z,1025.17
2019-01-06T10:00:13.473Z,1025.18
2019-01-06T10:01:13.458Z,1025.17
2019-01-06T10:02:13.481Z,1025.13
2019-01-06T10:03:13.595Z,1025.20
2019-01-06T10:04:13.431Z,1025.18
2019-01-06T10:06:30.748Z,1025.21
2019-01-06T10:07:30.760Z,1025.25
2019-01-06T10:08:30.724Z,1025.23
2019-01-06T10:09:30.727Z,1025.25
2019-01-06T10:10:30.768Z,1025.17
2019-01-06T10:11:30.724Z,1025.26
2019-01-06T10:12:30.701Z,1025.21
2019-01-06T10:13:30.677Z,1025.29
2019-01-06T10:14:30.657Z,1025.21
2019-01-06T10:15:30.656Z,1025.27
2019-01-06T10:16:40.407Z,1025.27
2019-01-06T10:17:39.924Z,1025.23
2019-01-06T10:18:30.613Z,1025.28
2019-01-06T10:19:30.601Z,1025.27
2019-01-06T10:20:30.591Z,1025.30
2019-01-06T10:21:30.577Z,1025.25
2019-01-06T10:22:30.591Z,1025.27
2019-01-06T10:23:30.560Z,1025.30
2019-01-06T10:24:30.547Z,1025.31
2019-01-06T10:25:39.997Z,1025.31
2019-01-06T10:26:39.880Z,1025.27
2019-01-06T10:27:30.544Z,1025.26
2019-01-06T10:28:30.503Z,1025.31
2019-01-06T10:29:30.489Z,1025.31
2019-01-06T10:30:30.479Z,1025.24
2019-01-06T10:31:30.467Z,1025.28
2019-01-06T10:32:30.455Z,1025.26
2019-01-06T10:33:30.467Z,1025.26
2019-01-06T10:34:30.435Z,1025.23
2019-01-06T10:35:30.427Z,1025.23
2019-01-06T10:36:30.411Z,1025.28
2019-01-06T10:37:30.407Z,1025.27
2019-01-06T10:38:30.411Z,1025.27
2019-01-06T10:39:30.410Z,1025.28
2019-01-06T10:40:30.370Z,1025.30
2019-01-06T10:41:30.357Z,1025.23
2019-01-06T10:42:30.345Z,1025.27
2019-01-06T10:43:30.355Z,1025.28
2019-01-06T10:44:30.345Z,1025.24
2019-01-06T10:45:30.312Z,1025.23
2019-01-06T10:46:30.307Z,1025.25
2019-01-06T10:47:30.289Z,1025.26
2019-01-06T10:48:30.302Z,1025.28
2019-01-06T10:49:30.270Z,1025.22
2019-01-06T10:50:30.259Z,1025.22
2019-01-06T10:51:30.266Z,1025.23
2019-01-06T10:52:30.246Z,1025.17
2019-01-06T10:53:30.386Z,1025.16
2019-01-06T10:54:30.215Z,1025.22
2019-01-06T10:55:30.212Z,1025.18
2019-01-06T10:56:30.190Z,1025.23
2019-01-06T10:57:30.206Z,1025.23
2019-01-06T10:58:38.642Z,1025.24
2019-01-06T10:59:30.158Z,1025.23
2019-01-06T11:00:30.150Z,1025.19
2019-01-06T11:01:30.134Z,1025.18
2019-01-06T11:02:30.125Z,1025.24
2019-01-06T11:04:20.942Z,1025.28
2019-01-06T11:05:20.909Z,1025.20
2019-01-06T11:06:20.895Z,1025.16
2019-01-06T11:07:20.889Z,1025.19
2019-01-06T11:08:20.877Z,1025.16
2019-01-06T11:09:20.885Z,1025.16
2019-01-06T11:10:20.864Z,1025.26
2019-01-06T11:11:20.841Z,1025.21
2019-01-06T11:12:20.829Z,1025.18
2019-01-06T11:13:31.039Z,1025.15
2019-01-06T11:14:20.973Z,1025.14
2019-01-06T11:15:20.806Z,1025.20
2019-01-06T11:16:20.787Z,1025.18
2019-01-06T11:17:20.774Z,1025.19
2019-01-06T11:18:20.762Z,1025.20
2019-01-06T11:19:20.752Z,1025.24
2019-01-06T11:20:20.768Z,1025.20
2019-01-06T11:21:20.732Z,1025.19
2019-01-06T11:22:20.983Z,1025.17
2019-01-06T11:23:20.709Z,1025.22
2019-01-06T11:24:20.699Z,1025.17
2019-01-06T11:25:29.069Z,1025.24
2019-01-06T11:26:20.676Z,1025.23
2019-01-06T11:27:20.665Z,1025.26
2019-01-06T11:28:20.654Z,1025.24
2019-01-06T11:29:20.642Z,1025.23
2019-01-06T11:30:20.653Z,1025.25
2019-01-06T11:31:20.626Z,1025.23
2019-01-06T11:32:20.612Z,1025.23
2019-01-06T11:33:20.600Z,1025.23
2019-01-06T11:34:20.590Z,1025.20
2019-01-06T11:35:20.599Z,1025.19
2019-01-06T11:36:20.565Z,1025.19
2019-01-06T11:37:20.554Z,1025.18
2019-01-06T11:38:20.544Z,1025.21
2019-01-06T11:39:20.534Z,1025.22
2019-01-06T11:40:20.545Z,1025.23
2019-01-06T11:41:20.509Z,1025.19
2019-01-06T11:42:20.515Z,1025.23
2019-01-06T11:43:20.486Z,1025.17
2019-01-06T11:44:20.476Z,1025.13
2019-01-06T11:45:20.485Z,1025.18
2019-01-06T11:46:28.764Z,1025.16
2019-01-06T11:47:20.473Z,1025.15
2019-01-06T11:48:20.431Z,1025.13
2019-01-06T11:49:20.418Z,1025.17
2019-01-06T11:50:20.495Z,1025.14
2019-01-06T11:51:20.713Z,1025.12
2019-01-06T11:52:20.389Z,1025.15
2019-01-06T11:53:20.376Z,1025.11
2019-01-06T11:54:20.364Z,1025.14
2019-01-06T11:55:20.357Z,1025.12
2019-01-06T11:56:20.379Z,1025.09
2019-01-06T11:57:20.512Z,1025.12
2019-01-06T11:58:20.327Z,1025.10
2019-01-06T11:59:20.619Z,1025.09
2019-01-06T12:00:20.298Z,1025.04
2019-01-06T12:01:20.316Z,1025.09
2019-01-06T12:02:20.282Z,1025.08
2019-01-06T12:03:20.264Z,1025.07
2019-01-06T12:04:20.326Z,1025.03
2019-01-06T12:05:20.272Z,1025.06
2019-01-06T12:06:20.470Z,1025.05
2019-01-06T12:07:20.222Z,1025.03